Time;durP1;ratioP1;P1;durP2;ratioP2;P2;SDS_P1;SDS_P2;PMS_P1;PMS_P2;Temp;Humidity;BMP_temperature;BMP_pressure;BME280_temperature;BME280_humidity;BME280_pressure;Samples;Min_cycle;Max_cycle;Signal;HPM_P1;HPM_P2
2023/03/25 00:01:08;;;;;;;5.10;0.90;;;10.00;99.90;;;;;;5032970;28;20044;-66
2023/03/25 00:03:40;;;;;;;4.80;1.10;;;9.90;99.90;;;;;;5050462;28;20044;-66
2023/03/25 00:06:07;;;;;;;10.02;1.30;;;9.80;99.90;;;;;;5032170;28;20045;-66
2023/03/25 00:08:33;;;;;;;4.93;0.90;;;9.90;99.90;;;;;;5050184;28;20044;-66
2023/03/25 00:11:05;;;;;;;3.58;0.88;;;9.90;99.90;;;;;;5016438;28;20052;-65
2023/03/25 00:13:31;;;;;;;5.57;0.90;;;9.80;99.90;;;;;;5050526;28;20373;-64
2023/03/25 00:15:58;;;;;;;6.10;0.90;;;9.90;99.90;;;;;;5032643;28;20089;-66
2023/03/25 00:18:28;;;;;;;7.00;1.10;;;9.90;99.90;;;;;;5049004;28;20044;-65
2023/03/25 00:20:55;;;;;;;6.47;1.05;;;9.90;99.90;;;;;;5050570;28;20077;-65
2023/03/25 00:23:22;;;;;;;6.50;0.90;;;9.90;99.90;;;;;;5049787;28;20107;-66
2023/03/25 00:25:48;;;;;;;4.65;0.90;;;9.90;99.90;;;;;;5032686;28;20574;-66
2023/03/25 00:28:15;;;;;;;7.07;0.88;;;9.90;99.90;;;;;;5032375;28;20379;-66
2023/03/25 00:30:42;;;;;;;5.70;0.93;;;9.90;99.90;;;;;;5050092;28;20051;-65
2023/03/25 00:33:15;;;;;;;5.72;1.33;;;9.90;99.90;;;;;;5015634;28;20044;-65
2023/03/25 00:35:43;;;;;;;8.05;0.90;;;9.80;99.90;;;;;;5049951;28;20099;-67
2023/03/25 00:38:12;;;;;;;7.25;1.33;;;9.90;99.90;;;;;;5049538;28;20059;-65
2023/03/25 00:40:39;;;;;;;7.40;1.00;;;9.90;99.90;;;;;;5031567;28;20115;-65
2023/03/25 00:43:06;;;;;;;9.85;1.02;;;9.90;99.90;;;;;;5033052;28;20056;-65
2023/03/25 00:45:32;;;;;;;10.00;0.95;;;9.80;99.90;;;;;;5035773;28;20052;-64
2023/03/25 00:47:58;;;;;;;4.43;0.95;;;9.90;99.90;;;;;;5036104;28;20045;-64
2023/03/25 00:50:25;;;;;;;10.23;1.15;;;9.80;99.90;;;;;;5035297;28;20049;-65
2023/03/25 00:52:52;;;;;;;6.88;1.00;;;9.90;99.90;;;;;;5035707;28;20498;-65
2023/03/25 00:55:18;;;;;;;6.05;1.10;;;9.90;99.90;;;;;;5053954;28;20364;-65
2023/03/25 00:57:44;;;;;;;4.35;0.77;;;10.70;99.90;;;;;;5035440;28;20048;-66
2023/03/25 01:00:14;;;;;;;5.97;1.00;;;9.80;99.90;;;;;;5053119;28;20048;-65
2023/03/25 01:02:41;;;;;;;8.02;1.25;;;9.70;99.90;;;;;;5019023;28;20045;-65
2023/03/25 01:05:09;;;;;;;6.80;1.25;;;9.80;99.90;;;;;;5035373;28;20064;-65
2023/03/25 01:07:36;;;;;;;7.43;1.10;;;9.70;99.90;;;;;;5035291;28;20482;-65
2023/03/25 01:10:05;;;;;;;6.88;1.02;;;9.70;99.90;;;;;;5052978;28;20458;-65
2023/03/25 01:12:31;;;;;;;6.43;1.02;;;9.70;99.90;;;;;;5053283;28;20482;-65
2023/03/25 01:14:56;;;;;;;6.43;0.93;;;9.50;99.90;;;;;;5052806;28;20124;-65
2023/03/25 01:17:22;;;;;;;2.50;0.70;;;9.60;99.90;;;;;;5053320;28;20092;-66
2023/03/25 01:19:48;;;;;;;7.38;1.17;;;9.70;99.90;;;;;;5034797;28;20053;-65
2023/03/25 01:22:14;;;;;;;4.40;0.90;;;9.60;99.90;;;;;;5053605;28;20045;-64
2023/03/25 01:24:40;;;;;;;5.70;1.52;;;9.60;99.90;;;;;;5052907;28;20045;-64
2023/03/25 01:27:05;;;;;;;6.55;1.00;;;9.50;99.90;;;;;;5052894;28;20056;-64
2023/03/25 01:29:31;;;;;;;4.32;1.00;;;9.60;99.90;;;;;;5052516;28;20508;-64
2023/03/25 01:31:57;;;;;;;7.55;0.90;;;9.20;99.90;;;;;;5018755;28;20053;-64
2023/03/25 01:34:24;;;;;;;7.35;1.05;;;8.60;99.90;;;;;;5035127;28;20049;-64
2023/03/25 01:36:49;;;;;;;7.47;1.00;;;9.10;99.90;;;;;;5052440;28;20060;-64
2023/03/25 01:39:17;;;;;;;4.55;1.05;;;9.10;99.90;;;;;;5034971;28;20049;-65
2023/03/25 01:41:45;;;;;;;9.13;1.35;;;9.00;99.90;;;;;;5034780;28;20060;-64
2023/03/25 01:44:13;;;;;;;9.23;1.23;;;9.00;99.90;;;;;;5035191;28;20052;-64
2023/03/25 01:46:44;;;;;;;5.18;1.02;;;8.90;99.90;;;;;;5052787;28;20041;-64
2023/03/25 01:49:22;;;;;;;7.85;1.65;;;9.00;99.90;;;;;;5035119;28;20045;-64
2023/03/25 01:51:52;;;;;;;6.38;1.20;;;8.90;99.90;;;;;;5035128;28;20067;-64
2023/03/25 01:54:18;;;;;;;7.63;1.02;;;8.90;99.90;;;;;;5052990;28;20073;-64
2023/03/25 01:56:47;;;;;;;8.73;1.33;;;8.70;99.90;;;;;;5052555;28;20057;-65
2023/03/25 01:59:17;;;;;;;4.75;1.00;;;8.80;99.90;;;;;;5034808;28;20131;-66
2023/03/25 02:01:47;;;;;;;7.53;1.30;;;8.80;99.90;;;;;;5034640;28;20041;-65
2023/03/25 02:04:21;;;;;;;6.13;1.08;;;8.80;99.90;;;;;;5034959;28;20036;-65
2023/03/25 02:06:52;;;;;;;6.18;1.42;;;8.70;99.90;;;;;;5051891;28;20095;-66
2023/03/25 02:09:21;;;;;;;6.82;1.48;;;8.70;99.90;;;;;;5035057;28;20466;-64
2023/03/25 02:11:47;;;;;;;6.53;1.40;;;8.80;99.90;;;;;;5052465;28;20060;-65
2023/03/25 02:14:29;;;;;;;6.05;1.30;;;8.80;99.90;;;;;;5017989;28;20098;-65
2023/03/25 02:17:16;;;;;;;6.65;1.15;;;8.80;99.90;;;;;;5035956;28;20390;-65
2023/03/25 02:20:07;;;;;;;6.90;1.67;;;8.70;99.90;;;;;;5052264;28;20124;-64
2023/03/25 02:22:58;;;;;;;7.38;1.88;;;8.80;99.90;;;;;;5035153;28;20094;-64
2023/03/25 02:25:39;;;;;;;9.18;1.45;;;8.70;99.90;;;;;;5052197;28;20059;-64
2023/03/25 02:28:28;;;;;;;4.95;1.38;;;8.80;99.90;;;;;;5052173;28;20140;-64
2023/03/25 02:31:06;;;;;;;9.80;1.70;;;8.70;99.90;;;;;;5034316;28;20422;-64
2023/03/25 02:33:44;;;;;;;8.32;1.50;;;8.60;99.90;;;;;;5052558;28;20044;-65
2023/03/25 02:36:18;;;;;;;5.45;1.60;;;8.70;99.90;;;;;;5033779;28;20143;-65
2023/03/25 02:39:02;;;;;;;10.15;1.80;;;8.70;99.90;;;;;;5051981;28;20052;-65
2023/03/25 02:41:42;;;;;;;9.00;1.80;;;8.70;99.90;;;;;;5053489;28;20053;-65
2023/03/25 02:44:17;;;;;;;8.60;1.40;;;8.70;99.90;;;;;;5037763;28;20048;-64
2023/03/25 02:46:50;;;;;;;8.02;1.80;;;8.80;99.90;;;;;;5038211;28;20075;-64
2023/03/25 02:49:32;;;;;;;7.22;1.83;;;8.60;99.90;;;;;;5055739;28;20045;-65
2023/03/25 02:52:05;;;;;;;8.68;1.45;;;8.70;99.90;;;;;;5056004;28;20087;-65
2023/03/25 02:54:33;;;;;;;7.70;1.60;;;8.70;99.90;;;;;;5055687;28;20041;-64
2023/03/25 02:56:59;;;;;;;6.57;1.77;;;8.70;99.90;;;;;;5038045;28;20049;-64
2023/03/25 02:59:28;;;;;;;7.78;1.20;;;8.70;99.90;;;;;;5055599;28;20456;-65
2023/03/25 03:01:57;;;;;;;10.65;1.58;;;8.60;99.90;;;;;;5055315;28;20458;-65
2023/03/25 03:04:24;;;;;;;7.15;1.58;;;8.80;99.90;;;;;;5055495;28;20107;-64
2023/03/25 03:06:52;;;;;;;10.48;1.58;;;8.60;99.90;;;;;;5036856;28;20060;-65
2023/03/25 03:09:36;;;;;;;11.60;1.98;;;8.60;99.90;;;;;;5055265;28;20055;-65
2023/03/25 03:12:26;;;;;;;9.35;1.67;;;8.70;99.90;;;;;;5055406;28;20139;-64
2023/03/25 03:15:26;;;;;;;7.72;1.80;;;8.80;99.90;;;;;;5037435;28;20056;-65
2023/03/25 03:18:25;;;;;;;12.82;1.90;;;8.80;99.90;;;;;;5021233;28;20049;-64
2023/03/25 03:21:07;;;;;;;13.32;2.55;;;8.70;99.90;;;;;;5055077;28;20048;-65
2023/03/25 03:23:53;;;;;;;11.38;1.80;;;8.50;99.90;;;;;;5037523;28;20049;-64
2023/03/25 03:26:32;;;;;;;15.88;2.58;;;8.90;99.90;;;;;;5020954;28;20057;-65
2023/03/25 03:29:07;;;;;;;13.73;2.90;;;8.50;99.90;;;;;;5017588;28;20077;-65
2023/03/25 03:31:40;;;;;;;8.57;2.35;;;8.60;99.90;;;;;;5053513;28;20044;-65
2023/03/25 03:34:13;;;;;;;11.07;2.40;;;8.70;99.90;;;;;;5020597;28;20045;-64
2023/03/25 03:36:45;;;;;;;11.30;3.20;;;8.60;99.90;;;;;;5020501;28;20060;-64
2023/03/25 03:39:29;;;;;;;10.85;2.65;;;8.70;99.90;;;;;;5037363;28;20045;-65
2023/03/25 03:42:17;;;;;;;9.70;1.95;;;8.60;99.90;;;;;;5055137;28;20068;-65
2023/03/25 03:44:48;;;;;;;8.15;1.85;;;8.50;99.90;;;;;;5036712;28;20417;-65
2023/03/25 03:47:22;;;;;;;11.63;2.53;;;8.60;99.90;;;;;;5036978;28;20041;-64
2023/03/25 03:49:59;;;;;;;7.47;1.92;;;8.50;99.90;;;;;;5054584;28;20080;-65
2023/03/25 03:52:37;;;;;;;8.63;2.35;;;8.50;99.90;;;;;;5054067;28;20589;-65
2023/03/25 03:55:18;;;;;;;9.55;2.25;;;8.50;99.90;;;;;;5020203;28;20041;-64
2023/03/25 03:57:58;;;;;;;11.45;2.03;;;8.50;99.90;;;;;;5037289;28;20053;-64
2023/03/25 04:00:36;;;;;;;9.48;1.92;;;8.40;99.90;;;;;;5036817;28;20068;-65
2023/03/25 04:03:23;;;;;;;11.07;1.95;;;8.50;99.90;;;;;;5036449;28;20390;-64
2023/03/25 04:05:54;;;;;;;6.15;1.67;;;8.50;99.90;;;;;;5054441;28;20048;-64
2023/03/25 04:08:32;;;;;;;10.75;2.00;;;8.50;99.90;;;;;;5036203;28;20459;-64
2023/03/25 04:11:06;;;;;;;11.77;2.05;;;8.40;99.90;;;;;;5054002;28;20045;-65
2023/03/25 04:13:36;;;;;;;6.78;1.88;;;8.40;99.90;;;;;;5054064;28;20041;-63
2023/03/25 04:16:02;;;;;;;9.75;2.13;;;8.40;99.90;;;;;;5053810;28;20036;-64
2023/03/25 04:18:32;;;;;;;11.10;1.85;;;8.40;99.90;;;;;;5054043;28;20049;-65
2023/03/25 04:20:59;;;;;;;11.88;1.70;;;8.40;99.90;;;;;;5053576;28;20041;-66
2023/03/25 04:23:28;;;;;;;8.63;2.35;;;8.60;99.90;;;;;;5036301;28;20056;-64
2023/03/25 04:25:54;;;;;;;13.07;1.90;;;8.30;99.90;;;;;;5036813;28;20083;-65
2023/03/25 04:28:22;;;;;;;10.57;2.10;;;8.40;99.90;;;;;;5036231;28;20051;-65
2023/03/25 04:30:54;;;;;;;7.22;1.90;;;8.50;99.90;;;;;;5036002;28;20132;-67
2023/03/25 04:33:21;;;;;;;13.98;2.53;;;8.40;99.90;;;;;;5053360;28;20053;-65
2023/03/25 04:35:49;;;;;;;9.63;2.17;;;8.50;99.90;;;;;;5036013;28;20053;-66
2023/03/25 04:38:19;;;;;;;10.23;2.00;;;8.50;99.90;;;;;;5053175;28;20049;-66
2023/03/25 04:40:46;;;;;;;11.75;2.20;;;8.40;99.90;;;;;;5035615;28;20061;-65
2023/03/25 04:43:16;;;;;;;10.52;2.33;;;8.20;99.90;;;;;;5053327;28;20167;-65
2023/03/25 04:45:47;;;;;;;9.18;2.10;;;8.60;99.90;;;;;;5053634;28;20041;-65
2023/03/25 04:48:28;;;;;;;9.25;1.85;;;8.30;99.90;;;;;;5053327;28;20052;-65
2023/03/25 04:50:56;;;;;;;8.73;2.08;;;8.60;99.90;;;;;;5053413;28;20504;-65
2023/03/25 04:53:22;;;;;;;9.48;1.90;;;8.50;99.90;;;;;;5053098;28;20405;-65
2023/03/25 04:55:49;;;;;;;8.18;2.33;;;8.40;99.90;;;;;;5053323;28;20049;-65
2023/03/25 04:58:14;;;;;;;9.60;2.03;;;8.40;99.90;;;;;;5019022;28;20053;-64
2023/03/25 05:00:42;;;;;;;9.15;2.42;;;8.40;99.90;;;;;;5002685;28;20063;-65
2023/03/25 05:03:10;;;;;;;12.18;2.88;;;8.40;99.90;;;;;;5052875;28;20136;-65
2023/03/25 05:05:36;;;;;;;13.30;2.20;;;8.40;99.90;;;;;;5053195;28;20048;-65
2023/03/25 05:08:02;;;;;;;13.82;2.40;;;8.40;99.90;;;;;;5035093;28;20088;-65
2023/03/25 05:10:28;;;;;;;8.75;2.00;;;8.40;99.90;;;;;;5053318;28;20044;-65
2023/03/25 05:12:59;;;;;;;8.30;2.35;;;8.40;99.90;;;;;;5035464;28;20040;-65
2023/03/25 05:15:25;;;;;;;10.68;2.10;;;9.40;99.90;;;;;;5052872;28;20381;-65
2023/03/25 05:17:51;;;;;;;12.13;2.30;;;8.40;99.90;;;;;;5053104;28;20091;-65
2023/03/25 05:20:21;;;;;;;8.88;1.95;;;8.30;99.90;;;;;;5053012;28;20053;-66
2023/03/25 05:22:47;;;;;;;7.82;2.45;;;8.30;99.90;;;;;;5053174;28;20124;-66
2023/03/25 05:25:12;;;;;;;6.30;1.63;;;8.40;99.90;;;;;;5052581;28;20088;-65
2023/03/25 05:27:38;;;;;;;5.10;1.42;;;8.50;99.90;;;;;;5052865;28;20194;-65
2023/03/25 05:30:06;;;;;;;6.32;1.63;;;8.40;99.90;;;;;;5052798;28;20099;-67
2023/03/25 05:32:32;;;;;;;9.50;1.92;;;8.40;99.90;;;;;;5052887;28;20051;-66
2023/03/25 05:34:59;;;;;;;6.32;1.80;;;8.40;99.90;;;;;;5034575;28;20049;-66
2023/03/25 05:37:25;;;;;;;8.02;2.08;;;8.50;99.90;;;;;;5034740;28;20051;-66
2023/03/25 05:39:51;;;;;;;8.95;2.05;;;8.50;99.90;;;;;;5052298;28;20486;-67
2023/03/25 05:42:21;;;;;;;9.10;1.70;;;8.60;99.90;;;;;;5018329;28;20083;-66
2023/03/25 05:44:50;;;;;;;12.35;2.05;;;8.30;99.90;;;;;;5052483;28;20041;-67
2023/03/25 05:47:22;;;;;;;7.10;2.03;;;8.40;99.90;;;;;;5035582;28;20045;-66
2023/03/25 05:49:51;;;;;;;8.25;2.03;;;8.50;99.90;;;;;;5053174;28;20123;-66
2023/03/25 05:52:18;;;;;;;10.52;2.47;;;8.50;99.90;;;;;;5053020;28;20104;-65
2023/03/25 05:54:49;;;;;;;11.82;3.35;;;8.30;99.90;;;;;;5052829;28;20486;-66
2023/03/25 05:57:15;;;;;;;11.45;3.35;;;8.40;99.90;;;;;;5018442;28;20052;-66
2023/03/25 05:59:41;;;;;;;7.53;1.77;;;8.60;99.90;;;;;;5035316;28;20135;-66
2023/03/25 06:02:11;;;;;;;7.22;1.90;;;8.40;99.90;;;;;;5034713;28;20041;-66
2023/03/25 06:04:40;;;;;;;7.35;2.65;;;8.30;99.90;;;;;;5018217;28;20132;-66
2023/03/25 06:07:21;;;;;;;11.77;2.45;;;8.40;99.90;;;;;;5018009;28;20855;-66
2023/03/25 06:09:47;;;;;;;9.57;2.10;;;8.50;99.90;;;;;;5019632;28;20387;-65
2023/03/25 06:12:21;;;;;;;14.75;2.05;;;8.60;99.90;;;;;;5034969;28;20172;-66
2023/03/25 06:14:52;;;;;;;17.08;2.75;;;8.50;99.90;;;;;;5065177;28;20053;-67
2023/03/25 06:17:20;;;;;;;9.48;1.85;;;8.50;99.90;;;;;;5058953;28;20045;-66
2023/03/25 06:19:47;;;;;;;11.35;2.33;;;8.60;99.90;;;;;;5056145;28;20498;-65
2023/03/25 06:22:13;;;;;;;10.07;2.40;;;8.70;99.90;;;;;;5056175;28;20406;-66
2023/03/25 06:24:40;;;;;;;10.27;2.10;;;8.60;99.90;;;;;;5056194;28;20049;-66
2023/03/25 06:27:17;;;;;;;11.57;2.10;;;8.50;99.90;;;;;;5055900;28;20115;-66
2023/03/25 06:29:43;;;;;;;9.80;1.95;;;8.50;99.90;;;;;;5038390;28;20095;-66
2023/03/25 06:32:11;;;;;;;9.60;2.28;;;8.70;99.90;;;;;;5037987;28;20055;-66
2023/03/25 06:34:38;;;;;;;9.57;1.83;;;8.60;99.90;;;;;;5055457;28;20060;-65
2023/03/25 06:37:04;;;;;;;12.82;2.60;;;8.50;99.90;;;;;;5037481;28;20107;-66
2023/03/25 06:39:30;;;;;;;12.43;2.45;;;8.60;99.90;;;;;;5056367;28;20048;-66
2023/03/25 06:41:59;;;;;;;14.23;2.20;;;8.60;99.90;;;;;;5056349;28;20048;-65
2023/03/25 06:44:26;;;;;;;9.88;2.10;;;8.90;99.90;;;;;;5055528;28;20410;-66
2023/03/25 06:46:52;;;;;;;12.23;2.70;;;8.70;99.90;;;;;;5037805;28;20560;-66
2023/03/25 06:49:18;;;;;;;8.75;2.35;;;9.50;99.90;;;;;;5038172;28;20044;-66
2023/03/25 06:51:45;;;;;;;8.32;2.33;;;8.70;99.90;;;;;;5055709;28;20041;-65
2023/03/25 06:54:10;;;;;;;7.57;2.08;;;8.90;99.90;;;;;;5055634;28;20084;-65
2023/03/25 06:56:36;;;;;;;8.82;1.88;;;8.80;99.90;;;;;;5055736;28;20473;-66
2023/03/25 06:59:02;;;;;;;9.63;1.60;;;8.90;99.90;;;;;;5055583;28;20045;-66
2023/03/25 07:01:28;;;;;;;11.55;2.28;;;8.70;99.90;;;;;;5055593;28;20106;-65
2023/03/25 07:03:54;;;;;;;8.45;1.65;;;8.70;99.90;;;;;;5055141;28;20490;-64
2023/03/25 07:06:21;;;;;;;7.97;1.40;;;8.70;99.90;;;;;;5054385;28;20080;-66
2023/03/25 07:08:48;;;;;;;9.13;1.33;;;8.80;99.90;;;;;;5055471;28;20084;-66
2023/03/25 07:11:15;;;;;;;9.50;1.58;;;8.50;99.90;;;;;;5037511;28;20052;-65
2023/03/25 07:13:41;;;;;;;8.68;1.52;;;8.80;99.90;;;;;;5037536;28;20045;-65
2023/03/25 07:16:08;;;;;;;8.43;1.65;;;8.50;99.90;;;;;;5054640;28;20033;-66
2023/03/25 07:18:33;;;;;;;9.38;1.35;;;8.60;99.90;;;;;;5054909;28;20502;-65
2023/03/25 07:21:00;;;;;;;10.18;1.60;;;8.50;99.90;;;;;;5054935;28;20059;-64
2023/03/25 07:23:25;;;;;;;7.68;1.52;;;8.50;99.90;;;;;;5004986;28;20149;-65
2023/03/25 07:25:51;;;;;;;9.10;1.83;;;8.60;99.90;;;;;;5054788;28;20080;-66
2023/03/25 07:28:17;;;;;;;9.40;1.65;;;8.50;99.90;;;;;;5054514;28;20055;-65
2023/03/25 07:30:43;;;;;;;12.65;2.17;;;8.50;99.90;;;;;;5037584;28;20137;-67
2023/03/25 07:33:09;;;;;;;11.40;2.03;;;8.40;99.90;;;;;;5017274;28;20049;-65
2023/03/25 07:35:34;;;;;;;10.75;1.63;;;8.50;99.90;;;;;;5016780;28;20041;-66
2023/03/25 07:38:01;;;;;;;10.05;1.65;;;8.50;99.90;;;;;;5034057;28;20402;-66
2023/03/25 07:40:27;;;;;;;7.15;1.98;;;8.40;99.90;;;;;;5009919;28;20133;-65
2023/03/25 07:42:53;;;;;;;7.28;1.58;;;8.60;99.90;;;;;;4997534;28;20112;-66
2023/03/25 07:45:18;;;;;;;11.00;1.70;;;8.90;99.90;;;;;;5014639;28;20129;-66
2023/03/25 07:47:48;;;;;;;11.77;1.58;;;9.00;99.90;;;;;;5013484;28;20056;-65
2023/03/25 07:50:19;;;;;;;13.60;1.40;;;8.90;99.90;;;;;;5015247;28;20124;-65
2023/03/25 07:52:44;;;;;;;7.57;1.38;;;9.00;99.90;;;;;;4994587;28;20050;-65
2023/03/25 07:55:10;;;;;;;7.53;1.40;;;9.00;99.90;;;;;;4993741;28;20061;-65
2023/03/25 07:57:36;;;;;;;12.35;1.38;;;9.00;99.90;;;;;;5007739;28;20107;-65
2023/03/25 08:00:04;;;;;;;10.93;1.73;;;8.80;99.90;;;;;;5014896;28;20077;-66
2023/03/25 08:02:30;;;;;;;10.15;1.20;;;9.00;99.90;;;;;;5013613;28;20060;-65
2023/03/25 08:04:56;;;;;;;10.48;1.77;;;9.10;99.90;;;;;;5013136;28;20046;-66
2023/03/25 08:07:22;;;;;;;9.10;1.88;;;9.20;99.90;;;;;;4996416;28;20137;-65
2023/03/25 08:09:48;;;;;;;11.15;1.10;;;9.00;99.90;;;;;;5013518;28;20045;-65
2023/03/25 08:12:14;;;;;;;8.52;1.58;;;9.00;99.90;;;;;;5013517;28;20049;-65
2023/03/25 08:14:39;;;;;;;9.82;1.35;;;8.90;99.90;;;;;;5012887;28;20069;-65
2023/03/25 08:17:06;;;;;;;15.75;2.10;;;9.00;99.90;;;;;;5013797;28;20100;-64
2023/03/25 08:19:32;;;;;;;6.40;1.10;;;8.80;99.90;;;;;;5012918;28;20045;-65
2023/03/25 08:21:57;;;;;;;6.75;1.30;;;8.80;99.90;;;;;;5013271;28;20065;-64
2023/03/25 08:24:25;;;;;;;8.73;1.52;;;8.80;99.90;;;;;;5013196;28;20037;-64
2023/03/25 08:26:52;;;;;;;7.28;1.23;;;8.60;99.90;;;;;;5014278;28;20045;-65
2023/03/25 08:29:19;;;;;;;5.65;1.10;;;8.60;99.90;;;;;;4997096;28;20098;-66
2023/03/25 08:31:45;;;;;;;6.50;1.25;;;8.80;99.90;;;;;;5014240;28;20100;-65
2023/03/25 08:34:12;;;;;;;7.88;1.38;;;8.60;99.90;;;;;;4997002;28;20116;-64
2023/03/25 08:36:38;;;;;;;7.00;1.38;;;8.50;99.90;;;;;;4996472;28;20414;-65
2023/03/25 08:39:10;;;;;;;6.88;1.50;;;8.50;99.90;;;;;;4996058;28;20049;-65
2023/03/25 08:41:37;;;;;;;8.02;1.00;;;8.50;99.90;;;;;;5012760;28;20058;-65
2023/03/25 08:44:04;;;;;;;4.40;0.88;;;8.70;99.90;;;;;;5014055;28;20108;-65
2023/03/25 08:46:30;;;;;;;8.50;1.42;;;8.40;99.90;;;;;;4996793;28;20058;-64
2023/03/25 08:48:55;;;;;;;7.07;1.35;;;8.60;99.90;;;;;;5013714;28;20050;-66
2023/03/25 08:51:21;;;;;;;6.78;0.98;;;8.50;99.90;;;;;;5014191;28;20116;-65
2023/03/25 08:53:47;;;;;;;4.70;0.70;;;8.60;99.90;;;;;;5012349;28;20507;-65
2023/03/25 08:56:13;;;;;;;7.35;0.90;;;8.70;99.90;;;;;;4996482;28;20046;-64
2023/03/25 08:58:39;;;;;;;5.25;0.90;;;8.80;99.90;;;;;;5007438;28;20057;-65
2023/03/25 09:01:05;;;;;;;7.13;0.80;;;8.70;99.90;;;;;;5010807;28;20046;-66
2023/03/25 09:03:31;;;;;;;3.83;0.82;;;8.70;99.90;;;;;;5010304;28;20449;-65
2023/03/25 09:05:57;;;;;;;5.55;0.88;;;8.70;99.90;;;;;;5013104;28;20046;-65
2023/03/25 09:08:23;;;;;;;8.13;1.27;;;8.70;99.90;;;;;;5013296;28;20064;-65
2023/03/25 09:10:49;;;;;;;5.78;0.80;;;8.70;99.90;;;;;;5013801;28;20042;-66
2023/03/25 09:13:15;;;;;;;9.07;1.50;;;8.80;99.90;;;;;;5013811;28;20461;-65
2023/03/25 09:15:41;;;;;;;6.13;1.17;;;8.90;99.90;;;;;;5013925;28;20072;-65
2023/03/25 09:18:07;;;;;;;11.02;1.58;;;9.10;99.90;;;;;;5013770;28;20403;-65
2023/03/25 09:20:33;;;;;;;11.95;1.90;;;8.80;99.90;;;;;;5012687;28;20089;-64
2023/03/25 09:22:59;;;;;;;13.13;1.60;;;9.00;99.90;;;;;;5013854;28;20522;-64
2023/03/25 09:25:24;;;;;;;10.88;2.03;;;8.90;99.90;;;;;;5012731;28;20462;-64
2023/03/25 09:27:50;;;;;;;8.55;1.38;;;8.90;99.90;;;;;;5013169;28;20136;-64
2023/03/25 09:30:16;;;;;;;7.63;1.30;;;8.80;99.90;;;;;;5013628;28;20041;-64
2023/03/25 09:32:43;;;;;;;10.48;2.20;;;8.90;99.90;;;;;;5013348;28;20034;-64
2023/03/25 09:35:09;;;;;;;8.25;1.42;;;8.80;99.90;;;;;;5013465;28;20090;-65
2023/03/25 09:37:35;;;;;;;9.02;1.88;;;8.90;99.90;;;;;;5011761;28;20061;-64
2023/03/25 09:40:01;;;;;;;12.43;1.77;;;9.00;99.90;;;;;;5012186;28;20108;-65
2023/03/25 09:42:49;;;;;;;8.65;1.95;;;9.10;99.90;;;;;;5013314;28;20119;-65
2023/03/25 09:45:46;;;;;;;8.70;1.58;;;9.30;99.90;;;;;;5013480;28;20050;-64
2023/03/25 09:48:36;;;;;;;9.27;1.60;;;9.30;99.90;;;;;;5012205;28;20415;-64
2023/03/25 09:51:15;;;;;;;8.88;1.40;;;9.40;99.90;;;;;;5016424;28;20057;-64
2023/03/25 09:53:53;;;;;;;11.30;1.40;;;9.50;99.90;;;;;;5000164;28;20042;-63
2023/03/25 09:56:24;;;;;;;11.18;1.40;;;9.50;99.90;;;;;;5017463;28;20503;-65
2023/03/25 09:59:00;;;;;;;10.18;1.63;;;9.80;99.90;;;;;;5016295;28;20049;-65
2023/03/25 10:02:11;;;;;;;9.25;1.30;;;9.70;99.90;;;;;;5017703;28;20042;-64
2023/03/25 10:04:46;;;;;;;5.63;1.20;;;9.70;99.90;;;;;;5001288;28;20048;-64
2023/03/25 10:07:28;;;;;;;9.13;1.55;;;9.80;99.90;;;;;;5016550;28;20050;-65
2023/03/25 10:10:14;;;;;;;4.93;1.25;;;9.80;99.90;;;;;;5000165;28;20132;-65
2023/03/25 10:12:54;;;;;;;15.10;1.52;;;10.00;99.90;;;;;;5015923;28;20126;-64
2023/03/25 10:15:26;;;;;;;8.50;1.52;;;10.00;99.90;;;;;;5016133;28;20057;-66
2023/03/25 10:18:08;;;;;;;6.85;1.35;;;10.10;99.90;;;;;;5016924;28;20053;-65
2023/03/25 10:21:01;;;;;;;5.38;0.90;;;9.90;99.90;;;;;;5017268;28;20060;-63
2023/03/25 10:23:54;;;;;;;5.03;0.90;;;9.80;99.90;;;;;;5017032;28;20129;-64
2023/03/25 10:26:23;;;;;;;;;;;9.30;99.90;;;;;;5016363;28;20455;-64
2023/03/25 10:29:00;;;;;;;1.67;0.30;;;9.10;99.90;;;;;;4999588;28;19928;-63
2023/03/25 10:31:30;;;;;;;5.07;0.70;;;8.90;99.90;;;;;;5016816;28;20053;-63
2023/03/25 10:34:01;;;;;;;7.05;0.73;;;8.80;99.90;;;;;;5015657;28;20042;-63
2023/03/25 10:36:36;;;;;;;8.82;1.30;;;9.00;99.90;;;;;;5016764;28;20085;-64
2023/03/25 10:39:12;;;;;;;7.43;1.40;;;8.60;99.90;;;;;;5015873;28;20116;-66
2023/03/25 10:41:42;;;;;;;7.40;0.95;;;8.70;99.90;;;;;;5015771;28;20127;-67
2023/03/25 10:44:11;;;;;;;5.70;1.20;;;8.90;99.90;;;;;;5018703;28;20041;-66
2023/03/25 10:46:52;;;;;;;8.35;1.40;;;8.80;99.90;;;;;;5014818;28;20092;-68
2023/03/25 10:49:20;;;;;;;11.77;1.42;;;8.90;99.90;;;;;;5015795;28;20395;-66
2023/03/25 10:51:49;;;;;;;5.85;1.05;;;8.90;99.90;;;;;;5014627;28;20057;-65
2023/03/25 10:54:16;;;;;;;5.78;1.15;;;9.00;99.90;;;;;;5014821;28;20038;-67
2023/03/25 10:56:51;;;;;;;8.45;1.00;;;9.00;99.90;;;;;;5012101;28;20495;-65
2023/03/25 10:59:33;;;;;;;7.80;1.33;;;9.20;99.90;;;;;;5014421;28;20044;-67
2023/03/25 11:02:02;;;;;;;6.70;1.40;;;9.20;99.90;;;;;;5013976;28;20041;-66
2023/03/25 11:04:36;;;;;;;8.60;1.48;;;8.90;99.90;;;;;;5014424;28;20045;-65
2023/03/25 11:07:08;;;;;;;7.03;1.20;;;9.10;99.90;;;;;;5017051;28;20091;-67
2023/03/25 11:09:35;;;;;;;7.03;1.65;;;9.10;99.90;;;;;;5015729;28;20049;-65
2023/03/25 11:12:05;;;;;;;7.18;1.00;;;9.20;99.90;;;;;;5011166;28;20046;-66
2023/03/25 11:14:38;;;;;;;4.40;1.17;;;9.30;99.90;;;;;;5015479;28;20050;-64
2023/03/25 11:17:15;;;;;;;7.97;0.85;;;9.30;99.90;;;;;;5013328;28;20048;-67
2023/03/25 11:20:00;;;;;;;7.38;1.08;;;8.80;99.90;;;;;;5014426;28;20079;-64
2023/03/25 11:22:37;;;;;;;12.90;2.08;;;9.20;99.90;;;;;;5013141;28;20046;-66
2023/03/25 11:25:05;;;;;;;10.00;1.48;;;8.90;99.90;;;;;;5011508;28;20033;-67
2023/03/25 11:27:43;;;;;;;10.80;1.17;;;9.00;99.90;;;;;;5015295;28;20383;-64
2023/03/25 11:30:17;;;;;;;5.75;0.90;;;9.10;99.90;;;;;;5013664;28;20073;-66
2023/03/25 11:32:43;;;;;;;6.82;0.98;;;8.90;99.90;;;;;;5012557;28;20050;-66
2023/03/25 11:35:23;;;;;;;5.43;1.08;;;8.80;99.90;;;;;;5013778;28;20081;-68
2023/03/25 11:37:58;;;;;;;15.30;1.40;;;8.90;99.90;;;;;;5013109;28;20124;-65
2023/03/25 11:40:27;;;;;;;11.10;1.25;;;8.90;99.90;;;;;;5011328;28;20053;-67
2023/03/25 11:42:58;;;;;;;10.90;1.70;;;9.00;99.90;;;;;;5014507;28;20057;-69
2023/03/25 11:45:33;;;;;;;11.30;1.58;;;9.10;99.90;;;;;;5011501;28;20133;-68
2023/03/25 11:48:07;;;;;;;10.73;1.50;;;9.10;99.90;;;;;;5014012;28;20124;-66
2023/03/25 11:50:34;;;;;;;13.90;1.77;;;9.20;99.90;;;;;;5013729;28;20442;-64
2023/03/25 11:53:02;;;;;;;10.02;1.70;;;9.40;99.90;;;;;;5013915;28;20454;-67
2023/03/25 11:55:44;;;;;;;9.38;1.30;;;9.50;99.90;;;;;;5015196;28;20395;-67
2023/03/25 11:58:20;;;;;;;3.90;1.10;;;9.70;99.90;;;;;;5015284;28;20559;-66
2023/03/25 12:00:52;;;;;;;9.43;1.35;;;9.80;99.90;;;;;;5014181;28;20117;-67
2023/03/25 12:03:21;;;;;;;7.70;1.20;;;9.90;99.90;;;;;;5014004;28;20081;-66
2023/03/25 12:06:17;;;;;;;12.50;1.00;;;9.90;99.90;;;;;;5015021;28;20434;-65
2023/03/25 12:08:57;;;;;;;6.32;1.20;;;10.00;99.90;;;;;;5013822;28;20045;-67
2023/03/25 12:11:27;;;;;;;7.47;0.93;;;10.10;99.90;;;;;;5015860;28;20046;-64
2023/03/25 12:14:23;;;;;;;6.18;1.13;;;10.10;99.90;;;;;;5014087;28;20042;-67
2023/03/25 12:16:58;;;;;;;4.47;1.33;;;10.00;99.90;;;;;;5014671;28;20045;-67
2023/03/25 12:19:42;;;;;;;5.22;1.00;;;9.70;99.90;;;;;;5013912;28;20553;-66
2023/03/25 12:22:27;;;;;;;4.78;1.00;;;9.70;99.90;;;;;;5013855;28;20050;-66
2023/03/25 12:25:14;;;;;;;9.50;1.45;;;9.30;99.90;;;;;;5014360;28;20084;-66
2023/03/25 12:27:45;;;;;;;7.93;1.10;;;9.50;99.90;;;;;;4997342;28;20053;-67
2023/03/25 12:30:34;;;;;;;6.40;1.25;;;9.50;99.90;;;;;;5013368;28;20499;-67
2023/03/25 12:33:21;;;;;;;5.65;1.48;;;9.50;99.90;;;;;;5013637;28;20484;-66
2023/03/25 12:36:17;;;;;;;8.75;1.85;;;9.60;99.90;;;;;;5013827;28;20484;-66
2023/03/25 12:38:53;;;;;;;7.53;1.25;;;9.50;99.90;;;;;;4980719;28;20113;-67
2023/03/25 12:41:21;;;;;;;10.88;1.00;;;9.60;99.90;;;;;;5012486;28;20050;-67
2023/03/25 12:44:03;;;;;;;8.45;0.90;;;9.80;99.90;;;;;;5013700;28;20046;-66
2023/03/25 12:47:10;;;;;;;6.75;0.90;;;9.80;99.90;;;;;;5011649;28;20116;-67
2023/03/25 12:49:42;;;;;;;9.55;1.10;;;9.90;99.90;;;;;;4968910;28;20057;-66
2023/03/25 12:52:51;;;;;;;9.15;1.30;;;9.90;99.90;;;;;;5013765;28;20050;-64
2023/03/25 12:55:39;;;;;;;4.63;0.90;;;10.10;99.90;;;;;;4975288;28;20088;-66
2023/03/25 12:58:26;;;;;;;5.35;1.00;;;10.20;99.90;;;;;;5011409;28;20458;-66
2023/03/25 13:01:20;;;;;;;4.35;0.90;;;10.00;99.90;;;;;;5011375;28;20045;-66
2023/03/25 13:04:14;;;;;;;6.60;0.82;;;10.10;99.90;;;;;;5011138;28;20161;-66
2023/03/25 13:06:46;;;;;;;5.15;0.82;;;10.30;99.90;;;;;;5009509;28;20132;-66
2023/03/25 13:09:29;;;;;;;5.65;1.13;;;10.30;99.90;;;;;;4996105;28;20050;-65
2023/03/25 13:12:00;;;;;;;6.68;1.20;;;10.30;99.90;;;;;;5011437;28;20112;-66
2023/03/25 13:14:40;;;;;;;8.65;1.10;;;10.30;99.90;;;;;;5014874;28;20515;-64
2023/03/25 13:17:14;;;;;;;7.72;1.13;;;10.30;99.90;;;;;;5010570;28;20057;-67